createdAt,value
2018-01-01T00:01:22.742Z,117.67
2018-01-01T00:03:51.490Z,108.03
2018-01-01T00:06:20.412Z,107.70
2018-01-01T00:08:48.684Z,102.03
2018-01-01T00:11:17.355Z,99.00
2018-01-01T00:13:47.859Z,93.73
2018-01-01T00:16:16.553Z,96.13
2018-01-01T00:18:45.457Z,89.07
2018-01-01T00:21:17.835Z,89.83
2018-01-01T00:23:52.203Z,80.70
2018-01-01T00:26:24.770Z,79.70
2018-01-01T00:28:54.145Z,76.83
2018-01-01T00:31:22.777Z,76.87
2018-01-01T00:33:51.048Z,68.97
2018-01-01T00:36:19.287Z,69.70
2018-01-01T00:38:48.218Z,62.20
2018-01-01T00:41:16.454Z,64.90
2018-01-01T00:43:45.087Z,58.60
2018-01-01T00:46:13.355Z,54.70
2018-01-01T00:48:41.630Z,53.77
2018-01-01T00:51:09.876Z,49.37
2018-01-01T00:53:38.152Z,51.63
2018-01-01T00:56:06.408Z,45.87
2018-01-01T00:58:35.067Z,42.27
2018-01-01T01:01:03.335Z,43.43
2018-01-01T01:03:31.576Z,41.00
2018-01-01T01:05:59.837Z,40.23
2018-01-01T01:08:28.491Z,37.13
2018-01-01T01:10:56.972Z,38.17
2018-01-01T01:13:25.235Z,32.27
2018-01-01T01:15:53.555Z,32.57
2018-01-01T01:18:22.196Z,32.47
2018-01-01T01:20:50.459Z,29.67
2018-01-01T01:23:18.750Z,28.40
2018-01-01T01:25:47.006Z,28.27
2018-01-01T01:28:15.288Z,27.17
2018-01-01T01:30:43.567Z,26.53
2018-01-01T01:33:11.802Z,26.27
2018-01-01T01:35:40.059Z,24.43
2018-01-01T01:38:08.711Z,25.17
2018-01-01T01:40:36.960Z,23.23
2018-01-01T01:43:05.207Z,24.80
2018-01-01T01:45:33.756Z,24.77
2018-01-01T01:48:02.013Z,22.07
2018-01-01T01:50:30.255Z,20.60
2018-01-01T01:52:58.537Z,20.67
2018-01-01T01:55:27.083Z,21.73
2018-01-01T01:57:56.060Z,18.83
2018-01-01T02:00:24.751Z,17.37
2018-01-01T02:02:52.983Z,17.40
2018-01-01T02:05:21.229Z,15.93
2018-01-01T02:07:49.495Z,14.40
2018-01-01T02:10:18.132Z,15.77
2018-01-01T02:12:46.378Z,15.60
2018-01-01T02:15:14.628Z,13.40
2018-01-01T02:17:43.254Z,14.50
2018-01-01T02:20:11.497Z,13.93
2018-01-01T02:22:40.173Z,14.80
2018-01-01T02:25:08.854Z,13.10
2018-01-01T02:27:37.123Z,14.20
2018-01-01T02:30:05.464Z,12.53
2018-01-01T02:32:33.723Z,12.10
2018-01-01T02:35:02.015Z,12.77
2018-01-01T02:37:30.304Z,12.53
2018-01-01T02:39:58.803Z,11.90
2018-01-01T02:42:27.043Z,11.57
2018-01-01T02:44:55.307Z,10.90
2018-01-01T02:47:23.555Z,12.83
2018-01-01T02:49:52.182Z,9.83
2018-01-01T02:52:20.468Z,10.17
2018-01-01T02:54:48.699Z,11.27
2018-01-01T02:57:16.942Z,11.17
2018-01-01T02:59:45.316Z,11.47
2018-01-01T03:02:13.551Z,9.70
2018-01-01T03:04:41.903Z,10.33
2018-01-01T03:07:10.175Z,9.63
2018-01-01T03:09:38.808Z,9.80
2018-01-01T03:12:07.303Z,9.20
2018-01-01T03:14:35.675Z,8.43
2018-01-01T03:17:04.472Z,9.10
2018-01-01T03:19:32.720Z,10.40
2018-01-01T03:22:00.963Z,8.17
2018-01-01T03:24:29.191Z,9.40
2018-01-01T03:26:57.427Z,8.67
2018-01-01T03:29:25.703Z,8.50
2018-01-01T03:31:53.949Z,7.57
2018-01-01T03:34:22.587Z,18.93
2018-01-01T03:36:50.850Z,15.63
2018-01-01T03:39:19.099Z,15.43
2018-01-01T03:41:47.374Z,13.90
2018-01-01T03:44:15.613Z,15.40
2018-01-01T03:46:43.862Z,15.03
2018-01-01T03:49:12.148Z,16.23
2018-01-01T03:51:40.390Z,15.03
2018-01-01T03:54:08.644Z,11.37
2018-01-01T03:56:37.307Z,12.40
2018-01-01T03:59:05.553Z,11.53
2018-01-01T04:01:33.843Z,11.50
2018-01-01T04:04:02.104Z,10.20
2018-01-01T04:06:30.338Z,10.30
2018-01-01T04:08:59.010Z,10.03
2018-01-01T04:11:27.240Z,9.13
2018-01-01T04:13:55.472Z,9.90
2018-01-01T04:16:24.098Z,10.00
2018-01-01T04:18:52.311Z,8.07
2018-01-01T04:21:20.543Z,9.77
2018-01-01T04:23:48.806Z,7.63
2018-01-01T04:26:17.038Z,7.43
2018-01-01T04:28:45.286Z,6.97
2018-01-01T04:31:13.566Z,6.73
2018-01-01T04:33:42.319Z,7.27
2018-01-01T04:36:10.556Z,6.13
2018-01-01T04:38:39.188Z,6.37
2018-01-01T04:41:07.423Z,6.53
2018-01-01T04:43:36.060Z,5.73
2018-01-01T04:46:04.298Z,6.63
2018-01-01T04:48:32.624Z,5.23
2018-01-01T04:51:01.048Z,5.13
2018-01-01T04:53:29.255Z,5.03
2018-01-01T04:55:57.487Z,5.67
2018-01-01T04:58:26.239Z,5.13
2018-01-01T05:00:54.493Z,5.33
2018-01-01T05:03:22.719Z,5.40
2018-01-01T05:05:51.355Z,4.70
2018-01-01T05:08:19.595Z,5.77
2018-01-01T05:10:48.217Z,4.40
2018-01-01T05:13:16.471Z,4.07
2018-01-01T05:15:44.715Z,3.87
2018-01-01T05:18:12.949Z,3.90
2018-01-01T05:20:41.210Z,3.23
2018-01-01T05:23:09.449Z,3.43
2018-01-01T05:25:38.079Z,4.23
2018-01-01T05:28:06.344Z,3.67
2018-01-01T05:30:35.278Z,3.00
2018-01-01T05:33:03.496Z,3.10
2018-01-01T05:35:31.744Z,3.53
2018-01-01T05:38:00.407Z,3.77
2018-01-01T05:40:28.647Z,3.73
2018-01-01T05:42:56.910Z,3.03
2018-01-01T05:45:25.143Z,3.23
2018-01-01T05:47:53.404Z,2.73
2018-01-01T05:50:21.631Z,3.43
2018-01-01T05:52:49.871Z,2.83
2018-01-01T05:55:18.114Z,2.90
2018-01-01T05:57:46.347Z,3.00
2018-01-01T06:00:15.399Z,2.63
2018-01-01T06:02:43.623Z,2.50
2018-01-01T06:05:11.871Z,2.17
2018-01-01T06:07:40.148Z,3.17
2018-01-01T06:10:08.375Z,2.60
2018-01-01T06:12:36.649Z,3.57
2018-01-01T06:15:04.876Z,2.40
2018-01-01T06:17:33.143Z,2.13
2018-01-01T06:20:01.395Z,2.20
2018-01-01T06:22:29.611Z,1.83
2018-01-01T06:24:58.246Z,2.10
2018-01-01T06:27:26.484Z,2.87
2018-01-01T06:29:54.739Z,1.93
2018-01-01T06:32:23.367Z,1.60
2018-01-01T06:34:51.599Z,2.00
2018-01-01T06:37:20.234Z,2.53
2018-01-01T06:39:48.467Z,1.60
2018-01-01T06:42:17.103Z,1.70
2018-01-01T06:44:45.344Z,1.60
2018-01-01T06:47:13.570Z,1.40
2018-01-01T06:49:41.827Z,1.40
2018-01-01T06:52:10.063Z,1.50
2018-01-01T06:54:38.300Z,1.57
2018-01-01T06:57:06.576Z,2.13
2018-01-01T06:59:34.803Z,1.40
2018-01-01T07:02:03.039Z,1.53
2018-01-01T07:04:31.288Z,1.20
2018-01-01T07:06:59.508Z,2.10
2018-01-01T07:09:28.170Z,1.90
2018-01-01T07:11:56.390Z,1.50
2018-01-01T07:14:24.621Z,1.67
2018-01-01T07:16:52.868Z,2.33
2018-01-01T07:19:21.110Z,1.83
2018-01-01T07:21:49.635Z,2.03
2018-01-01T07:24:17.875Z,2.10
2018-01-01T07:26:46.111Z,2.00
2018-01-01T07:29:14.852Z,2.20
2018-01-01T07:31:43.867Z,1.40
2018-01-01T07:34:12.106Z,2.00
2018-01-01T07:36:40.347Z,1.40
2018-01-01T07:39:08.898Z,1.23
2018-01-01T07:41:37.138Z,1.53
2018-01-01T07:44:05.394Z,3.37
2018-01-01T07:46:33.632Z,2.17
2018-01-01T07:49:01.869Z,1.30
2018-01-01T07:51:30.204Z,1.30
2018-01-01T07:53:58.822Z,4.77
2018-01-01T07:56:27.055Z,2.87
2018-01-01T07:58:55.304Z,1.40
2018-01-01T08:01:23.539Z,2.90
2018-01-01T08:03:51.786Z,2.03
2018-01-01T08:06:20.413Z,1.30
2018-01-01T08:08:48.654Z,1.20
2018-01-01T08:11:17.287Z,1.10
2018-01-01T08:13:45.522Z,1.10
2018-01-01T08:16:14.171Z,3.67
2018-01-01T08:18:42.413Z,2.17
2018-01-01T08:21:10.792Z,5.63
2018-01-01T08:23:39.067Z,1.70
2018-01-01T08:26:08.918Z,2.43
2018-01-01T08:28:37.346Z,1.73
2018-01-01T08:31:05.596Z,6.13
2018-01-01T08:33:34.335Z,4.03
2018-01-01T08:36:02.555Z,2.60
2018-01-01T08:38:31.192Z,1.40
2018-01-01T08:40:59.465Z,2.10
2018-01-01T08:43:27.691Z,1.80
2018-01-01T08:45:56.330Z,1.70
2018-01-01T08:48:24.604Z,2.37
2018-01-01T08:50:52.884Z,2.83
2018-01-01T08:53:21.107Z,2.00
2018-01-01T08:55:49.740Z,1.90
2018-01-01T08:58:18.061Z,2.43
2018-01-01T09:00:46.695Z,3.10
2018-01-01T09:03:14.931Z,1.57
2018-01-01T09:05:43.563Z,3.37
2018-01-01T09:08:11.812Z,3.37
2018-01-01T09:10:40.342Z,1.30
2018-01-01T09:13:08.591Z,3.23
2018-01-01T09:15:36.837Z,1.40
2018-01-01T09:18:05.070Z,1.47
2018-01-01T09:20:33.316Z,3.10
2018-01-01T09:23:01.556Z,2.80
2018-01-01T09:25:29.802Z,1.50
2018-01-01T09:27:58.059Z,2.30
2018-01-01T09:30:26.304Z,3.03
2018-01-01T09:32:54.539Z,1.27
2018-01-01T09:35:23.200Z,1.23
2018-01-01T09:37:51.427Z,1.87
2018-01-01T09:40:19.714Z,1.40
2018-01-01T09:42:47.940Z,1.83
2018-01-01T09:45:16.171Z,2.27
2018-01-01T09:47:44.443Z,1.83
2018-01-01T09:50:12.677Z,1.20
2018-01-01T09:52:40.907Z,2.03
2018-01-01T09:55:09.171Z,1.70
2018-01-01T09:57:37.401Z,2.27
2018-01-01T10:00:05.675Z,1.83
2018-01-01T10:02:33.927Z,1.77
2018-01-01T10:05:02.143Z,2.27
2018-01-01T10:07:30.391Z,1.53
2018-01-01T10:09:58.666Z,2.03
2018-01-01T10:12:26.902Z,1.23
2018-01-01T10:14:55.139Z,1.70
2018-01-01T10:17:23.781Z,1.60
2018-01-01T10:19:52.002Z,1.00
2018-01-01T10:22:20.291Z,1.47
2018-01-01T10:24:48.528Z,2.10
2018-01-01T10:27:16.884Z,1.93
2018-01-01T10:29:45.163Z,1.53
2018-01-01T10:32:13.396Z,2.23
2018-01-01T10:34:41.635Z,1.63
2018-01-01T10:37:09.878Z,1.50
2018-01-01T10:39:38.116Z,1.20
2018-01-01T10:42:06.367Z,4.60
2018-01-01T10:44:34.998Z,3.30
2018-01-01T10:47:03.260Z,2.00
2018-01-01T10:49:31.503Z,1.37
2018-01-01T10:52:00.723Z,1.60
2018-01-01T10:54:29.127Z,1.83
2018-01-01T10:56:57.384Z,2.80
2018-01-01T10:59:25.650Z,2.43
2018-01-01T11:01:54.271Z,2.50
2018-01-01T11:04:22.549Z,2.03
2018-01-01T11:06:50.787Z,2.70
2018-01-01T11:09:19.031Z,1.90
2018-01-01T11:11:47.431Z,1.70
2018-01-01T11:14:16.078Z,1.27
2018-01-01T11:16:44.350Z,1.23
2018-01-01T11:19:12.695Z,1.97
2018-01-01T11:21:40.972Z,1.73
2018-01-01T11:24:09.203Z,3.20
2018-01-01T11:26:37.445Z,2.63
2018-01-01T11:29:05.688Z,1.77
2018-01-01T11:31:33.991Z,2.27
2018-01-01T11:34:02.230Z,1.87
2018-01-01T11:36:30.477Z,1.50
2018-01-01T11:38:58.741Z,4.10
2018-01-01T11:41:27.058Z,2.17
2018-01-01T11:43:55.316Z,2.10
2018-01-01T11:46:23.574Z,1.80
2018-01-01T11:48:52.825Z,2.77
2018-01-01T11:51:21.059Z,1.50
2018-01-01T11:53:50.038Z,1.90
2018-01-01T11:56:18.268Z,3.20
2018-01-01T11:58:46.507Z,4.60
2018-01-01T12:01:15.146Z,2.40
2018-01-01T12:03:43.436Z,1.60
2018-01-01T12:06:11.713Z,2.73
2018-01-01T12:08:39.990Z,2.97
2018-01-01T12:11:08.267Z,1.83
2018-01-01T12:13:36.761Z,1.23
2018-01-01T12:16:05.011Z,1.73
2018-01-01T12:18:33.253Z,2.13
2018-01-01T12:21:01.496Z,1.53
2018-01-01T12:23:29.739Z,2.90
2018-01-01T12:25:58.896Z,2.17
2018-01-01T12:28:27.167Z,1.60
2018-01-01T12:30:55.795Z,1.60
2018-01-01T12:33:24.038Z,2.40
2018-01-01T12:35:52.279Z,1.37
2018-01-01T12:38:20.517Z,1.87
2018-01-01T12:40:48.786Z,2.27
2018-01-01T12:43:17.015Z,1.87
2018-01-01T12:45:45.769Z,1.47
2018-01-01T12:48:14.259Z,1.27
2018-01-01T12:50:42.490Z,1.40
2018-01-01T12:53:10.732Z,1.33
2018-01-01T12:55:39.386Z,1.63
2018-01-01T12:58:07.875Z,1.27
2018-01-01T13:00:36.364Z,1.93
2018-01-01T13:03:04.625Z,1.87
2018-01-01T13:05:32.857Z,2.13
2018-01-01T13:08:01.107Z,6.50
2018-01-01T13:10:29.766Z,2.80
2018-01-01T13:12:58.034Z,1.97
2018-01-01T13:15:26.258Z,0.80
2018-01-01T13:17:54.960Z,2.73
2018-01-01T13:20:23.208Z,1.57
2018-01-01T13:22:52.171Z,1.63
2018-01-01T13:25:20.415Z,1.67
2018-01-01T13:27:48.651Z,2.50
2018-01-01T13:30:17.288Z,2.30
2018-01-01T13:32:45.575Z,1.60
2018-01-01T13:35:13.793Z,1.30
2018-01-01T13:37:42.428Z,2.30
2018-01-01T13:40:10.710Z,1.90
2018-01-01T13:42:38.923Z,1.30
2018-01-01T13:45:07.171Z,1.03
2018-01-01T13:47:35.410Z,1.40
2018-01-01T13:50:03.712Z,1.80
2018-01-01T13:52:31.935Z,2.40
2018-01-01T13:55:00.183Z,1.77
2018-01-01T13:57:28.462Z,1.40
2018-01-01T13:59:56.717Z,1.20
2018-01-01T14:02:24.938Z,1.73
2018-01-01T14:04:53.615Z,2.10
2018-01-01T14:07:21.894Z,1.27
2018-01-01T14:09:50.131Z,2.37
2018-01-01T14:12:18.424Z,3.20
2018-01-01T14:14:46.668Z,1.57
2018-01-01T14:17:14.920Z,1.00
2018-01-01T14:19:43.169Z,2.13
2018-01-01T14:22:11.791Z,5.17
2018-01-01T14:24:40.064Z,1.30
2018-01-01T14:27:08.308Z,1.33
2018-01-01T14:29:36.931Z,1.10
2018-01-01T14:32:05.216Z,1.30
2018-01-01T14:34:33.454Z,1.47
2018-01-01T14:37:01.715Z,1.00
2018-01-01T14:39:30.347Z,0.93
2018-01-01T14:41:58.592Z,1.70
2018-01-01T14:44:26.851Z,1.00
2018-01-01T14:46:55.470Z,1.20
2018-01-01T14:49:23.708Z,1.40
2018-01-01T14:51:52.354Z,2.23
2018-01-01T14:54:20.576Z,1.60
2018-01-01T14:56:49.234Z,1.53
2018-01-01T14:59:17.505Z,1.67
2018-01-01T15:01:45.764Z,1.70
2018-01-01T15:04:14.003Z,1.30
2018-01-01T15:06:42.724Z,1.60
2018-01-01T15:09:11.158Z,1.40
2018-01-01T15:11:40.309Z,1.90
2018-01-01T15:14:09.332Z,1.40
2018-01-01T15:16:37.555Z,1.40
2018-01-01T15:19:05.899Z,1.90
2018-01-01T15:21:34.227Z,1.30
2018-01-01T15:24:02.489Z,1.57
2018-01-01T15:26:30.780Z,1.93
2018-01-01T15:28:59.004Z,1.70
2018-01-01T15:31:27.249Z,2.60
2018-01-01T15:33:55.565Z,1.10
2018-01-01T15:36:23.797Z,1.30
2018-01-01T15:38:52.035Z,1.30
2018-01-01T15:41:20.299Z,1.67
2018-01-01T15:43:48.587Z,2.27
2018-01-01T15:46:16.831Z,1.30
2018-01-01T15:48:45.124Z,1.80
2018-01-01T15:51:13.412Z,1.43
2018-01-01T15:53:41.648Z,1.30
2018-01-01T15:56:10.207Z,1.10
2018-01-01T15:58:38.478Z,1.30
2018-01-01T16:01:06.963Z,1.73
2018-01-01T16:03:35.248Z,3.13
2018-01-01T16:06:03.492Z,1.03
2018-01-01T16:08:31.768Z,1.57
2018-01-01T16:11:00.091Z,1.53
2018-01-01T16:13:28.330Z,1.33
2018-01-01T16:15:56.579Z,1.80
2018-01-01T16:18:25.199Z,1.20
2018-01-01T16:20:53.475Z,1.73
2018-01-01T16:23:21.727Z,1.73
2018-01-01T16:25:50.956Z,1.43
2018-01-01T16:28:19.203Z,2.57
2018-01-01T16:30:47.447Z,1.87
2018-01-01T16:33:15.717Z,1.37
2018-01-01T16:35:44.381Z,1.33
2018-01-01T16:38:13.028Z,2.00
2018-01-01T16:40:41.253Z,1.67
2018-01-01T16:43:10.019Z,2.07
2018-01-01T16:45:39.500Z,1.40
2018-01-01T16:48:08.104Z,1.43
2018-01-01T16:50:36.408Z,1.43
2018-01-01T16:53:05.087Z,2.40
2018-01-01T16:55:33.433Z,1.67
2018-01-01T16:58:01.872Z,1.90
2018-01-01T17:00:30.209Z,1.20
2018-01-01T17:02:58.779Z,1.60
2018-01-01T17:05:27.493Z,2.13
2018-01-01T17:07:56.170Z,5.50
2018-01-01T17:10:24.591Z,1.20
2018-01-01T17:12:53.943Z,1.93
2018-01-01T17:15:23.659Z,1.30
2018-01-01T17:17:53.347Z,2.47
2018-01-01T17:20:22.686Z,2.13
2018-01-01T17:22:51.628Z,1.60
2018-01-01T17:25:19.989Z,1.47
2018-01-01T17:27:48.267Z,1.13
2018-01-01T17:30:16.606Z,1.63
2018-01-01T17:32:45.329Z,3.03
2018-01-01T17:35:13.633Z,1.40
2018-01-01T17:37:42.568Z,1.57
2018-01-01T17:40:11.215Z,1.77
2018-01-01T17:42:39.716Z,1.57
2018-01-01T17:45:08.325Z,3.40
2018-01-01T17:47:37.122Z,1.57
2018-01-01T17:50:08.326Z,2.23
2018-01-01T17:52:36.751Z,2.00
2018-01-01T17:55:06.805Z,1.23
2018-01-01T17:57:35.828Z,1.67
2018-01-01T18:00:04.513Z,2.30
2018-01-01T18:02:34.232Z,3.00
2018-01-01T18:05:02.589Z,1.27
2018-01-01T18:07:30.971Z,2.00
2018-01-01T18:09:59.209Z,1.63
2018-01-01T18:12:27.451Z,2.27
2018-01-01T18:14:55.714Z,1.50
2018-01-01T18:17:24.346Z,2.00
2018-01-01T18:19:52.610Z,2.13
2018-01-01T18:22:20.865Z,1.93
2018-01-01T18:24:49.592Z,1.73
2018-01-01T18:27:17.854Z,1.80
2018-01-01T18:29:46.547Z,2.40
2018-01-01T18:32:14.879Z,2.87
2018-01-01T18:34:43.263Z,2.10
2018-01-01T18:37:11.878Z,2.67
2018-01-01T18:39:40.153Z,2.90
2018-01-01T18:42:08.442Z,2.27
2018-01-01T18:44:36.671Z,2.77
2018-01-01T18:47:04.923Z,4.07
2018-01-01T18:49:33.686Z,3.13
2018-01-01T18:52:01.935Z,2.30
2018-01-01T18:54:30.228Z,1.87
2018-01-01T18:56:58.501Z,2.87
2018-01-01T18:59:26.756Z,2.63
2018-01-01T19:01:55.264Z,2.67
2018-01-01T19:04:24.236Z,2.67
2018-01-01T19:06:52.813Z,5.07
2018-01-01T19:09:21.519Z,3.20
2018-01-01T19:11:49.760Z,2.00
2018-01-01T19:14:18.003Z,3.47
2018-01-01T19:16:47.084Z,2.90
2018-01-01T19:19:15.319Z,7.80
2018-01-01T19:21:43.569Z,2.87
2018-01-01T19:24:11.848Z,1.70
2018-01-01T19:26:40.588Z,3.13
2018-01-01T19:29:09.031Z,1.97
2018-01-01T19:31:37.347Z,3.40
2018-01-01T19:34:05.760Z,4.07
2018-01-01T19:36:34.033Z,5.90
2018-01-01T19:39:02.600Z,9.83
2018-01-01T19:41:30.830Z,6.00
2018-01-01T19:43:59.105Z,5.97
2018-01-01T19:46:27.343Z,5.07
2018-01-01T19:48:56.009Z,5.97
2018-01-01T19:51:24.275Z,16.60
2018-01-01T19:53:52.498Z,5.60
2018-01-01T19:56:21.050Z,6.67
2018-01-01T19:58:49.408Z,8.57
2018-01-01T20:01:17.661Z,396.50
2018-01-01T20:03:45.928Z,253.87
2018-01-01T20:06:14.211Z,162.57
2018-01-01T20:08:42.489Z,158.30
2018-01-01T20:11:10.755Z,137.00
2018-01-01T20:13:39.008Z,91.63
2018-01-01T20:16:07.340Z,93.47
2018-01-01T20:18:35.848Z,90.32
2018-01-01T20:21:04.206Z,96.32
2018-01-01T20:23:32.692Z,74.27
2018-01-01T20:26:02.129Z,60.57
2018-01-01T20:28:30.640Z,56.30
2018-01-01T20:30:59.185Z,50.80
2018-01-01T20:33:27.784Z,47.80
2018-01-01T20:35:56.484Z,38.87
2018-01-01T20:38:25.235Z,35.23
2018-01-01T20:40:53.913Z,31.90
2018-01-01T20:43:22.314Z,30.30
2018-01-01T20:45:51.224Z,28.00
2018-01-01T20:48:20.387Z,23.37
2018-01-01T20:50:48.959Z,20.83
2018-01-01T20:53:17.382Z,21.07
2018-01-01T20:55:45.770Z,18.50
2018-01-01T20:58:14.485Z,15.90
2018-01-01T21:00:42.735Z,15.00
2018-01-01T21:03:11.010Z,12.83
2018-01-01T21:05:39.287Z,12.57
2018-01-01T21:08:07.527Z,12.60
2018-01-01T21:10:36.169Z,9.73
2018-01-01T21:13:04.443Z,9.97
2018-01-01T21:15:32.738Z,11.13
2018-01-01T21:18:00.998Z,343.70
2018-01-01T21:20:29.396Z,331.03
2018-01-01T21:22:57.976Z,299.33
2018-01-01T21:25:26.250Z,281.13
2018-01-01T21:27:54.508Z,236.23
2018-01-01T21:30:22.835Z,200.50
2018-01-01T21:32:51.183Z,177.27
2018-01-01T21:35:19.455Z,146.37
2018-01-01T21:37:47.718Z,136.80
2018-01-01T21:40:15.993Z,109.30
2018-01-01T21:42:44.235Z,84.43
2018-01-01T21:45:12.484Z,73.70
2018-01-01T21:47:41.128Z,66.57
2018-01-01T21:50:09.375Z,61.83
2018-01-01T21:52:37.711Z,52.50
2018-01-01T21:55:05.959Z,44.07
2018-01-01T21:57:34.195Z,43.70
2018-01-01T22:00:02.517Z,37.27
2018-01-01T22:02:30.725Z,31.27
2018-01-01T22:04:59.403Z,34.50
2018-01-01T22:07:28.039Z,36.23
2018-01-01T22:09:56.288Z,36.37
2018-01-01T22:12:24.552Z,35.40
2018-01-01T22:14:53.210Z,33.50
2018-01-01T22:17:21.513Z,32.90
2018-01-01T22:19:49.774Z,32.07
2018-01-01T22:22:18.336Z,32.43
2018-01-01T22:24:46.620Z,33.70
2018-01-01T22:27:14.905Z,32.13
2018-01-01T22:29:43.137Z,33.50
2018-01-01T22:32:11.431Z,31.90
2018-01-01T22:34:39.735Z,31.50
2018-01-01T22:37:08.403Z,30.30
2018-01-01T22:39:36.651Z,31.30
2018-01-01T22:42:04.942Z,27.70
2018-01-01T22:44:33.191Z,28.23
2018-01-01T22:47:01.445Z,26.80
2018-01-01T22:49:29.709Z,26.90
2018-01-01T22:51:58.707Z,24.93
2018-01-01T22:54:26.956Z,70.93
2018-01-01T22:56:55.231Z,72.20
2018-01-01T22:59:23.486Z,64.23
2018-01-01T23:01:53.087Z,60.83
2018-01-01T23:04:21.455Z,57.17
2018-01-01T23:06:49.698Z,58.13
2018-01-01T23:09:17.959Z,53.00
2018-01-01T23:11:46.603Z,52.47
2018-01-01T23:14:14.852Z,50.57
2018-01-01T23:16:43.128Z,49.60
2018-01-01T23:19:11.387Z,45.90
2018-01-01T23:21:39.643Z,43.70
2018-01-01T23:24:07.916Z,42.93
2018-01-01T23:26:36.155Z,40.97
2018-01-01T23:29:04.428Z,39.37
2018-01-01T23:31:32.690Z,38.23
2018-01-01T23:34:01.826Z,35.40
2018-01-01T23:36:30.103Z,32.27
2018-01-01T23:38:58.355Z,31.27
2018-01-01T23:41:26.621Z,31.13
2018-01-01T23:43:54.880Z,30.53
2018-01-01T23:46:23.127Z,31.03
2018-01-01T23:48:51.804Z,26.30
2018-01-01T23:51:20.068Z,26.83
2018-01-01T23:53:48.314Z,24.33
2018-01-01T23:56:16.784Z,24.50
2018-01-01T23:58:45.403Z,22.80
